Time;durP1;ratioP1;P1;durP2;ratioP2;P2;SDS_P1;SDS_P2;PMS_P1;PMS_P2;Temp;Humidity;BMP_temperature;BMP_pressure;BME280_temperature;BME280_humidity;BME280_pressure;Samples;Min_cycle;Max_cycle;Signal;HPM_P1;HPM_P2
2021/10/18 00:00:18;213418.00;0.71;369.02;0.00;0.00;0.62;;;;;15.60;1.00;;;;;;2267497;61;1129;-86
2021/10/18 00:02:45;225527.00;0.75;389.85;0.00;0.00;0.62;;;;;15.80;1.00;;;;;;2264914;61;2020;-86
2021/10/18 00:05:14;205775.00;0.69;355.86;0.00;0.00;0.62;;;;;15.90;1.00;;;;;;2262874;61;1271;-87
2021/10/18 00:07:42;407486.00;1.36;702.67;0.00;0.00;0.62;;;;;15.70;1.00;;;;;;2256012;61;1201;-87
2021/10/18 00:10:10;288109.00;0.96;497.48;0.00;0.00;0.62;;;;;15.60;1.00;;;;;;2262849;61;1138;-87
2021/10/18 00:12:37;405854.00;1.35;699.87;34678.00;0.12;60.68;;;;;15.70;1.00;;;;;;2263228;61;1258;-87
2021/10/18 00:15:06;236538.00;0.79;408.80;0.00;0.00;0.62;;;;;16.00;1.00;;;;;;2256094;61;1140;-87
2021/10/18 00:17:34;382557.00;1.28;659.82;0.00;0.00;0.62;;;;;15.90;1.00;;;;;;2263426;61;1106;-87
2021/10/18 00:20:01;287605.00;0.96;496.61;0.00;0.00;0.62;;;;;15.80;1.00;;;;;;2265625;61;1172;-87
2021/10/18 00:22:28;300217.00;1.00;518.29;0.00;0.00;0.62;;;;;15.60;1.00;;;;;;2259254;61;1245;-87
2021/10/18 00:24:55;292763.00;0.98;505.48;0.00;0.00;0.62;;;;;14.80;1.00;;;;;;2259175;61;2021;-87
2021/10/18 00:27:22;386149.00;1.29;665.99;0.00;0.00;0.62;;;;;15.20;1.00;;;;;;2262953;61;1182;-87
2021/10/18 00:29:50;202304.00;0.67;349.89;0.00;0.00;0.62;;;;;15.50;1.00;;;;;;2263331;61;1154;-87
2021/10/18 00:32:18;300360.00;1.00;518.54;0.00;0.00;0.62;;;;;15.60;1.00;;;;;;2263121;61;1051;-87
2021/10/18 00:34:45;354427.00;1.18;611.47;0.00;0.00;0.62;;;;;15.50;1.00;;;;;;2263178;61;1333;-87
2021/10/18 00:37:12;381501.00;1.27;658.01;0.00;0.00;0.62;;;;;15.20;1.00;;;;;;2263548;61;1125;-87
2021/10/18 00:39:39;310641.00;1.04;536.21;0.00;0.00;0.62;;;;;15.40;1.00;;;;;;2263539;61;1147;-87
2021/10/18 00:42:06;223501.00;0.75;386.37;0.00;0.00;0.62;;;;;15.50;1.00;;;;;;2263410;61;1188;-87
2021/10/18 00:44:33;523167.00;1.74;901.72;0.00;0.00;0.62;;;;;15.70;1.00;;;;;;2263334;61;2011;-87
2021/10/18 00:47:01;478506.00;1.60;824.83;0.00;0.00;0.62;;;;;15.70;1.00;;;;;;2259240;61;1255;-87
2021/10/18 00:49:30;423009.00;1.41;729.36;0.00;0.00;0.62;;;;;15.90;1.00;;;;;;2263871;61;1179;-87
2021/10/18 00:51:57;459331.00;1.53;791.83;0.00;0.00;0.62;;;;;16.00;1.00;;;;;;2263434;61;1158;-87
2021/10/18 00:54:25;442829.00;1.48;763.45;0.00;0.00;0.62;;;;;15.50;1.00;;;;;;2264169;61;1446;-87
2021/10/18 00:56:52;443390.00;1.48;764.41;0.00;0.00;0.62;;;;;15.90;1.00;;;;;;2263913;61;1776;-87
2021/10/18 00:59:20;413712.00;1.38;713.38;0.00;0.00;0.62;;;;;15.90;1.00;;;;;;2263568;61;1117;-87
2021/10/18 01:01:48;231246.00;0.77;399.69;0.00;0.00;0.62;;;;;15.90;1.00;;;;;;2263994;61;1141;-87
2021/10/18 01:04:16;327194.00;1.09;564.66;0.00;0.00;0.62;;;;;16.20;1.00;;;;;;2263738;61;2032;-87
2021/10/18 01:06:45;341471.00;1.14;589.20;0.00;0.00;0.62;;;;;16.10;1.00;;;;;;2263397;61;1215;-87
2021/10/18 01:09:12;493045.00;1.64;849.85;0.00;0.00;0.62;;;;;15.50;1.00;;;;;;2263902;61;1148;-87
2021/10/18 01:11:39;318892.00;1.06;550.39;0.00;0.00;0.62;;;;;14.90;1.00;;;;;;2263925;61;1061;-87
2021/10/18 01:14:07;733577.00;2.45;1265.52;0.00;0.00;0.62;;;;;15.30;1.00;;;;;;2263563;61;1384;-87
2021/10/18 01:16:34;385206.00;1.28;664.37;0.00;0.00;0.62;;;;;15.00;1.00;;;;;;2263477;61;1085;-87
2021/10/18 01:19:10;313306.00;1.04;540.79;0.00;0.00;0.62;;;;;15.40;1.00;;;;;;2263936;61;1191;-87
2021/10/18 01:21:38;560791.00;1.87;966.56;0.00;0.00;0.62;;;;;15.20;1.00;;;;;;2266043;61;1046;-87
2021/10/18 01:24:05;537003.00;1.79;925.56;0.00;0.00;0.62;;;;;14.50;1.00;;;;;;2264024;61;1923;-87
2021/10/18 01:26:32;416222.00;1.39;717.69;0.00;0.00;0.62;;;;;14.60;1.00;;;;;;2264889;61;1163;-87
2021/10/18 01:29:00;632050.00;2.11;1089.59;0.00;0.00;0.62;;;;;14.30;1.00;;;;;;2264023;61;1186;-87
2021/10/18 01:31:27;667573.00;2.23;1151.05;45590.00;0.15;79.56;;;;;13.90;1.00;;;;;;2264724;61;1157;-87
2021/10/18 01:33:54;417531.00;1.39;719.95;0.00;0.00;0.62;;;;;14.20;1.30;;;;;;2264988;61;1283;-87
2021/10/18 01:36:21;409225.00;1.36;705.66;0.00;0.00;0.62;;;;;13.90;1.00;;;;;;2264851;61;1098;-86
2021/10/18 01:38:49;551675.00;1.84;950.85;0.00;0.00;0.62;;;;;13.70;1.00;;;;;;2257530;61;1085;-87
2021/10/18 01:41:16;594154.00;1.98;1024.13;0.00;0.00;0.62;;;;;13.60;1.00;;;;;;2261015;61;1183;-86
2021/10/18 01:43:43;412705.00;1.38;711.65;0.00;0.00;0.62;;;;;13.60;1.00;;;;;;2264778;61;2015;-87
2021/10/18 01:46:10;330106.00;1.10;569.67;0.00;0.00;0.62;;;;;13.80;1.00;;;;;;2261671;61;1251;-86
2021/10/18 01:48:37;542789.00;1.81;935.53;0.00;0.00;0.62;;;;;13.60;1.00;;;;;;2265548;61;1152;-87
2021/10/18 01:51:04;432246.00;1.44;745.25;0.00;0.00;0.62;;;;;14.00;1.00;;;;;;2265406;61;1110;-87
2021/10/18 01:53:31;276463.00;0.92;477.46;0.00;0.00;0.62;;;;;13.90;1.00;;;;;;2261830;61;1483;-87
2021/10/18 01:55:59;579867.00;1.93;999.47;0.00;0.00;0.62;;;;;13.80;1.00;;;;;;2265404;61;1270;-87
2021/10/18 01:58:26;558625.00;1.86;962.83;0.00;0.00;0.62;;;;;13.80;1.00;;;;;;2265373;61;1123;-87
2021/10/18 02:00:53;510043.00;1.70;879.12;0.00;0.00;0.62;;;;;13.90;1.00;;;;;;2261540;61;1283;-87
2021/10/18 02:03:20;411426.00;1.37;709.45;0.00;0.00;0.62;;;;;13.90;1.00;;;;;;2261448;61;1923;-87
2021/10/18 02:05:47;486403.00;1.62;838.42;0.00;0.00;0.62;;;;;13.80;1.00;;;;;;2259273;61;1161;-86
2021/10/18 02:08:14;535197.00;1.78;922.45;0.00;0.00;0.62;;;;;14.10;1.00;;;;;;2263237;61;1102;-86
2021/10/18 02:10:41;437818.00;1.46;754.83;0.00;0.00;0.62;;;;;13.70;1.00;;;;;;2263460;61;1169;-86
2021/10/18 02:13:09;613762.00;2.05;1057.99;0.00;0.00;0.62;;;;;13.90;1.60;;;;;;2262921;61;1341;-87
2021/10/18 02:15:36;523030.00;1.74;901.48;0.00;0.00;0.62;;;;;13.80;1.00;;;;;;2267465;61;1204;-86
2021/10/18 02:18:04;438858.00;1.46;756.62;0.00;0.00;0.62;;;;;13.90;1.00;;;;;;2263317;61;1041;-86
2021/10/18 02:20:30;483336.00;1.61;833.14;22656.00;0.08;39.87;;;;;13.80;1.00;;;;;;2262372;61;1125;-86
2021/10/18 02:22:57;461456.00;1.54;795.49;0.00;0.00;0.62;;;;;13.70;1.00;;;;;;2262610;61;1306;-86
2021/10/18 02:25:24;521403.00;1.74;898.68;0.00;0.00;0.62;;;;;13.70;1.00;;;;;;2255124;61;1940;-86
2021/10/18 02:27:51;572841.00;1.91;987.35;0.00;0.00;0.62;;;;;13.60;1.00;;;;;;2252758;61;1107;-86
2021/10/18 02:30:21;398640.00;1.33;687.47;0.00;0.00;0.62;;;;;13.90;1.00;;;;;;2243216;61;1244;-87
2021/10/18 02:32:48;403617.00;1.35;696.02;0.00;0.00;0.62;;;;;13.90;1.00;;;;;;2246464;61;1438;-86
2021/10/18 02:35:15;330502.00;1.10;570.35;0.00;0.00;0.62;;;;;13.80;1.00;;;;;;2252784;61;1184;-87
2021/10/18 02:37:43;315173.00;1.05;544.00;0.00;0.00;0.62;;;;;13.90;1.00;;;;;;2252537;61;1137;-87
2021/10/18 02:40:10;389291.00;1.30;671.40;0.00;0.00;0.62;;;;;14.30;1.00;;;;;;2242603;61;1337;-87
2021/10/18 02:42:37;626587.00;2.09;1080.15;0.00;0.00;0.62;;;;;14.40;1.00;;;;;;2248217;61;1279;-87
2021/10/18 02:45:05;428248.00;1.43;738.37;0.00;0.00;0.62;;;;;14.30;1.00;;;;;;2245938;61;1997;-87
2021/10/18 02:47:33;345209.00;1.15;595.63;0.00;0.00;0.62;;;;;14.20;1.00;;;;;;2249454;61;1039;-87
2021/10/18 02:50:00;597252.00;1.99;1029.48;0.00;0.00;0.62;;;;;14.20;1.00;;;;;;2256105;61;1091;-87
2021/10/18 02:52:27;435206.00;1.45;750.34;0.00;0.00;0.62;;;;;14.40;1.00;;;;;;2256951;61;1093;-87
2021/10/18 02:54:55;372875.00;1.24;643.18;0.00;0.00;0.62;;;;;14.70;1.00;;;;;;2246970;61;1183;-87
2021/10/18 02:57:22;436542.00;1.46;752.64;0.00;0.00;0.62;;;;;14.40;1.00;;;;;;2253274;61;1124;-88
2021/10/18 02:59:49;481058.00;1.60;829.22;0.00;0.00;0.62;;;;;14.50;1.00;;;;;;2247228;61;1177;-87
2021/10/18 03:02:17;396621.00;1.32;684.00;0.00;0.00;0.62;;;;;14.20;1.00;;;;;;2254418;61;1224;-88
2021/10/18 03:04:46;424468.00;1.41;731.87;0.00;0.00;0.62;;;;;14.20;1.00;;;;;;2265668;61;2018;-86
2021/10/18 03:07:13;356662.00;1.19;615.31;0.00;0.00;0.62;;;;;14.00;1.00;;;;;;2254876;61;1149;-87
2021/10/18 03:09:40;450332.00;1.50;776.35;0.00;0.00;0.62;;;;;13.90;1.00;;;;;;2266060;61;1164;-88
2021/10/18 03:12:07;171597.00;0.57;297.02;0.00;0.00;0.62;;;;;14.10;1.00;;;;;;2266225;61;1077;-87
2021/10/18 03:14:34;333011.00;1.11;574.66;0.00;0.00;0.62;;;;;14.20;1.00;;;;;;2264727;61;1821;-87
2021/10/18 03:17:01;476194.00;1.59;820.85;0.00;0.00;0.62;;;;;14.00;1.00;;;;;;2264810;61;1230;-89
2021/10/18 03:19:28;472687.00;1.58;814.81;0.00;0.00;0.62;;;;;14.10;1.00;;;;;;2255344;61;1098;-86
2021/10/18 03:21:57;325055.00;1.08;560.99;0.00;0.00;0.62;;;;;13.90;1.00;;;;;;2258369;61;1157;-88
2021/10/18 03:24:24;260143.00;0.87;449.39;0.00;0.00;0.62;;;;;13.80;1.00;;;;;;2260382;61;2007;-87
2021/10/18 03:26:51;387907.00;1.29;669.02;0.00;0.00;0.62;;;;;13.70;1.00;;;;;;2260978;61;1150;-87
2021/10/18 03:29:18;375425.00;1.25;647.56;0.00;0.00;0.62;;;;;14.00;1.00;;;;;;2255725;61;1108;-86
2021/10/18 03:31:45;314794.00;1.05;543.35;0.00;0.00;0.62;;;;;14.10;1.00;;;;;;2245611;61;1108;-87
2021/10/18 03:34:12;265526.00;0.89;458.65;0.00;0.00;0.62;;;;;14.40;1.00;;;;;;2254971;61;1820;-87
2021/10/18 03:36:39;182270.00;0.61;315.40;0.00;0.00;0.62;;;;;14.30;1.00;;;;;;2257391;61;1157;-90
2021/10/18 03:39:08;336140.00;1.12;580.04;0.00;0.00;0.62;;;;;14.20;1.00;;;;;;2258635;61;1321;-87
2021/10/18 03:41:35;409901.00;1.37;706.83;0.00;0.00;0.62;;;;;14.50;1.00;;;;;;2254382;61;1212;-87
2021/10/18 03:44:02;412687.00;1.38;711.62;0.00;0.00;0.62;;;;;14.10;1.00;;;;;;2254567;61;1924;-86
2021/10/18 03:46:29;508492.00;1.69;876.45;0.00;0.00;0.62;;;;;14.30;1.00;;;;;;2248536;61;1151;-86
2021/10/18 03:48:56;341664.00;1.14;589.53;0.00;0.00;0.62;;;;;14.00;1.00;;;;;;2262502;61;1181;-86
2021/10/18 03:51:24;467813.00;1.56;806.43;0.00;0.00;0.62;;;;;13.30;1.00;;;;;;2262506;61;1244;-86
2021/10/18 03:53:50;491627.00;1.64;847.41;0.00;0.00;0.62;;;;;13.20;1.00;;;;;;2262519;61;1278;-86
2021/10/18 03:56:19;374422.00;1.25;645.84;0.00;0.00;0.62;;;;;13.10;1.00;;;;;;2263303;61;1073;-86
2021/10/18 03:58:46;392988.00;1.31;677.75;0.00;0.00;0.62;;;;;13.10;1.00;;;;;;2261872;61;1112;-86
2021/10/18 04:01:13;314917.00;1.05;543.56;0.00;0.00;0.62;;;;;13.20;1.10;;;;;;2262529;61;1050;-86
2021/10/18 04:03:40;335727.00;1.12;579.33;0.00;0.00;0.62;;;;;13.70;1.50;;;;;;2262663;61;1443;-86
2021/10/18 04:06:07;402782.00;1.34;694.59;0.00;0.00;0.62;;;;;14.10;1.00;;;;;;2262005;61;2108;-88
2021/10/18 04:08:36;421968.00;1.41;727.57;0.00;0.00;0.62;;;;;14.00;1.00;;;;;;2262946;61;1133;-86
2021/10/18 04:11:03;397351.00;1.32;685.25;0.00;0.00;0.62;;;;;14.20;1.00;;;;;;2262831;61;1142;-86
2021/10/18 04:13:32;480177.00;1.60;827.70;0.00;0.00;0.62;;;;;14.20;1.00;;;;;;2263152;61;1628;-86
2021/10/18 04:15:59;484803.00;1.62;835.66;0.00;0.00;0.62;;;;;14.30;1.00;;;;;;2267922;61;1116;-89
2021/10/18 04:18:26;602172.00;2.01;1037.97;0.00;0.00;0.62;;;;;14.10;1.00;;;;;;2264496;61;1560;-86
2021/10/18 04:20:53;455262.00;1.52;784.83;0.00;0.00;0.62;;;;;13.30;1.00;;;;;;2266408;61;1172;-88
2021/10/18 04:23:20;639515.00;2.13;1102.50;0.00;0.00;0.62;;;;;13.30;1.20;;;;;;2267465;61;1356;-87
2021/10/18 04:25:47;548786.00;1.83;945.87;0.00;0.00;0.62;;;;;13.60;1.00;;;;;;2268267;61;1976;-87
2021/10/18 04:28:14;992291.00;3.31;1718.82;0.00;0.00;0.62;;;;;13.40;1.00;;;;;;2267566;61;1102;-88
2021/10/18 04:30:43;799381.00;2.66;1380.04;0.00;0.00;0.62;;;;;13.60;1.00;;;;;;2263759;61;1453;-87
2021/10/18 04:33:09;572081.00;1.91;986.04;0.00;0.00;0.62;;;;;13.30;1.00;;;;;;2267568;61;1270;-85
2021/10/18 04:35:36;400935.00;1.34;691.41;0.00;0.00;0.62;;;;;13.40;1.00;;;;;;2267682;61;1120;-87
2021/10/18 04:38:03;444555.00;1.48;766.42;0.00;0.00;0.62;;;;;13.60;1.00;;;;;;2265833;61;1017;-86
2021/10/18 04:40:31;571144.00;1.90;984.42;0.00;0.00;0.62;;;;;13.60;1.00;;;;;;2262324;61;1041;-85
2021/10/18 04:42:58;356136.00;1.19;614.41;0.00;0.00;0.62;;;;;13.40;1.00;;;;;;2262662;61;1372;-87
2021/10/18 04:45:25;701325.00;2.34;1209.54;124365.00;0.41;215.61;;;;;13.60;1.00;;;;;;2262122;61;2026;-85
2021/10/18 04:47:53;257070.00;0.86;444.11;0.00;0.00;0.62;;;;;13.80;3.30;;;;;;2262155;61;1609;-86
2021/10/18 04:50:22;414477.00;1.38;714.69;0.00;0.00;0.62;;;;;13.90;1.00;;;;;;2262542;61;1126;-86
2021/10/18 04:52:50;446970.00;1.49;770.57;0.00;0.00;0.62;;;;;13.80;1.00;;;;;;2262066;61;1356;-86
2021/10/18 04:55:17;445339.00;1.48;767.77;0.00;0.00;0.62;;;;;13.70;1.00;;;;;;2261738;61;1145;-86
2021/10/18 04:57:52;294966.00;0.98;509.27;0.00;0.00;0.62;;;;;14.10;1.80;;;;;;2263080;61;1054;-86
2021/10/18 05:00:20;308453.00;1.03;532.45;0.00;0.00;0.62;;;;;14.60;1.20;;;;;;2263342;61;1100;-86
2021/10/18 05:02:47;421044.00;1.40;725.99;0.00;0.00;0.62;;;;;15.30;1.00;;;;;;2262961;61;1367;-87
2021/10/18 05:05:16;230566.00;0.77;398.52;0.00;0.00;0.62;;;;;15.40;1.00;;;;;;2263341;61;1999;-87
2021/10/18 05:07:43;655768.00;2.19;1130.62;0.00;0.00;0.62;;;;;15.10;1.00;;;;;;2263017;61;1239;-86
2021/10/18 05:10:11;610715.00;2.04;1052.72;0.00;0.00;0.62;;;;;14.60;1.00;;;;;;2264192;61;1745;-86
2021/10/18 05:12:38;656706.00;2.19;1132.24;0.00;0.00;0.62;;;;;14.40;1.00;;;;;;2258495;61;1383;-88
2021/10/18 05:15:08;443309.00;1.48;764.27;0.00;0.00;0.62;;;;;14.60;1.00;;;;;;2258269;61;1162;-87
2021/10/18 05:17:35;480819.00;1.60;828.81;0.00;0.00;0.62;;;;;14.90;1.00;;;;;;2248052;61;1177;-87
2021/10/18 05:25:55;734063.00;2.45;1266.36;0.00;0.00;0.62;;;;;14.20;1.00;;;;;;2260955;61;2007;-86
2021/10/18 05:28:22;524115.00;1.75;903.35;53823.00;0.18;93.80;;;;;14.40;1.00;;;;;;2259563;61;1168;-85
2021/10/18 05:30:49;601324.00;2.00;1036.51;0.00;0.00;0.62;;;;;13.80;1.00;;;;;;2259533;61;1169;-85
2021/10/18 05:33:16;453225.00;1.51;781.33;0.00;0.00;0.62;;;;;13.60;1.00;;;;;;2259243;61;1373;-85
2021/10/18 05:35:43;479920.00;1.60;827.26;0.00;0.00;0.62;;;;;13.60;1.00;;;;;;2259820;61;1137;-86
2021/10/18 05:38:10;546118.00;1.82;941.27;0.00;0.00;0.62;;;;;14.10;1.80;;;;;;2258878;61;1098;-85
2021/10/18 05:40:37;628387.00;2.09;1083.26;0.00;0.00;0.62;;;;;14.40;1.00;;;;;;2258796;61;1647;-85
2021/10/18 05:43:05;583192.00;1.94;1005.21;0.00;0.00;0.62;;;;;14.10;1.00;;;;;;2258921;61;1275;-85
2021/10/18 05:45:33;626075.00;2.09;1079.26;0.00;0.00;0.62;;;;;13.90;1.00;;;;;;2258811;61;2026;-84
2021/10/18 05:48:02;710493.00;2.37;1225.44;0.00;0.00;0.62;;;;;13.80;1.00;;;;;;2258943;61;1514;-85
2021/10/18 05:50:32;493895.00;1.65;851.31;0.00;0.00;0.62;;;;;13.30;1.00;;;;;;2258869;61;1189;-85
2021/10/18 05:52:59;519535.00;1.73;895.46;0.00;0.00;0.62;;;;;13.60;1.40;;;;;;2259330;61;1418;-86
2021/10/18 05:55:27;742690.00;2.48;1281.35;0.00;0.00;0.62;;;;;13.70;1.00;;;;;;2258591;61;1215;-85
2021/10/18 05:57:55;527944.00;1.76;909.95;0.00;0.00;0.62;;;;;13.70;1.00;;;;;;2259177;61;1157;-85
2021/10/18 06:00:26;368951.00;1.23;636.43;0.00;0.00;0.62;;;;;13.00;1.00;;;;;;2258195;61;1674;-86
2021/10/18 06:02:54;538994.00;1.80;928.99;0.00;0.00;0.62;;;;;12.90;2.80;;;;;;2258889;61;1415;-86
2021/10/18 06:05:23;558137.00;1.86;961.99;0.00;0.00;0.62;;;;;13.10;1.40;;;;;;2258737;61;1993;-85
2021/10/18 06:07:50;587504.00;1.96;1012.65;0.00;0.00;0.62;;;;;13.20;1.00;;;;;;2258786;61;1078;-85
2021/10/18 06:10:17;472467.00;1.57;814.43;0.00;0.00;0.62;;;;;13.00;3.50;;;;;;2257848;61;1676;-86
2021/10/18 06:12:45;606347.00;2.02;1045.18;0.00;0.00;0.62;;;;;13.20;1.70;;;;;;2257888;61;1343;-86
2021/10/18 06:15:13;549953.00;1.83;947.88;0.00;0.00;0.62;;;;;13.00;1.00;;;;;;2257827;61;1232;-85
2021/10/18 06:17:44;572545.00;1.91;986.84;0.00;0.00;0.62;;;;;12.70;1.00;;;;;;2258067;61;1238;-85
2021/10/18 06:20:11;786635.00;2.62;1357.82;0.00;0.00;0.62;;;;;12.70;1.60;;;;;;2257545;61;1067;-85
2021/10/18 06:22:38;550736.00;1.84;949.23;0.00;0.00;0.62;;;;;12.40;2.50;;;;;;2257264;61;1493;-85
2021/10/18 06:25:06;498607.00;1.66;859.43;0.00;0.00;0.62;;;;;12.40;3.10;;;;;;2260426;61;1939;-86
2021/10/18 06:27:33;651400.00;2.17;1123.06;0.00;0.00;0.62;;;;;12.20;2.90;;;;;;2261610;61;1232;-85
2021/10/18 06:30:00;620003.00;2.07;1068.77;0.00;0.00;0.62;;;;;12.60;4.10;;;;;;2261600;61;1089;-84
2021/10/18 06:32:27;478097.00;1.59;824.12;0.00;0.00;0.62;;;;;12.90;3.80;;;;;;2262263;61;1567;-86
2021/10/18 06:34:55;524563.00;1.75;904.13;0.00;0.00;0.62;;;;;13.30;3.10;;;;;;2262681;61;1521;-86
2021/10/18 06:37:22;721950.00;2.41;1245.32;0.00;0.00;0.62;;;;;14.00;4.40;;;;;;2263480;61;885;-85
2021/10/18 06:39:49;533899.00;1.78;920.21;0.00;0.00;0.62;;;;;13.70;1.00;;;;;;2264141;61;1552;-86
2021/10/18 06:42:16;638315.00;2.13;1100.43;0.00;0.00;0.62;;;;;13.90;1.00;;;;;;2264387;61;1184;-86
2021/10/18 06:44:43;452105.00;1.51;779.40;0.00;0.00;0.62;;;;;13.50;1.00;;;;;;2263053;61;1925;-85
2021/10/18 06:47:10;652709.00;2.18;1125.32;0.00;0.00;0.62;;;;;13.80;1.80;;;;;;2262678;61;1247;-86
2021/10/18 06:49:37;617479.00;2.06;1064.41;0.00;0.00;0.62;;;;;14.20;1.90;;;;;;2262671;61;1106;-86
2021/10/18 06:52:06;481723.00;1.61;830.36;0.00;0.00;0.62;;;;;14.70;1.00;;;;;;2262326;61;1128;-86
2021/10/18 06:54:37;214094.00;0.71;370.18;0.00;0.00;0.62;;;;;14.80;1.00;;;;;;2263103;61;1617;-86
2021/10/18 06:57:04;448734.00;1.50;773.60;0.00;0.00;0.62;;;;;15.30;1.00;;;;;;2263692;61;1087;-86
2021/10/18 06:59:32;436201.00;1.45;752.05;0.00;0.00;0.62;;;;;15.80;1.00;;;;;;2263614;61;1084;-85
2021/10/18 07:01:59;297526.00;0.99;513.67;0.00;0.00;0.62;;;;;15.80;1.00;;;;;;2263481;61;1156;-86
2021/10/18 07:04:29;513953.00;1.71;885.85;0.00;0.00;0.62;;;;;15.90;1.00;;;;;;2265097;61;1503;-87
2021/10/18 07:06:58;120092832.00;400.31;70162728.00;0.00;0.00;0.62;;;;;15.60;1.00;;;;;;2267626;61;2013;-87
2021/10/18 07:09:27;375963.00;1.25;648.49;0.00;0.00;0.62;;;;;15.20;1.00;;;;;;2267506;61;1248;-86
2021/10/18 07:11:56;626575.00;2.09;1080.13;0.00;0.00;0.62;;;;;15.20;1.00;;;;;;2267926;61;1097;-88
2021/10/18 07:14:23;521498.00;1.74;898.85;0.00;0.00;0.62;;;;;15.30;1.00;;;;;;2266159;61;1479;-88
2021/10/18 07:16:50;515776.00;1.72;888.99;0.00;0.00;0.62;;;;;15.40;1.00;;;;;;2267857;61;1134;-86
2021/10/18 07:19:18;477362.00;1.59;822.86;0.00;0.00;0.62;;;;;15.30;1.00;;;;;;2267658;61;1101;-87
2021/10/18 07:21:46;515709.00;1.72;888.87;0.00;0.00;0.62;;;;;15.10;1.00;;;;;;2267718;61;1105;-86
2021/10/18 07:24:14;118821856.00;396.07;67956600.00;0.00;0.00;0.62;;;;;14.90;1.00;;;;;;2265977;61;1426;-86
2021/10/18 07:26:42;425805.00;1.42;734.17;0.00;0.00;0.62;;;;;14.70;1.00;;;;;;2262799;61;2023;-85
2021/10/18 07:29:09;644565.00;2.15;1111.23;0.00;0.00;0.62;;;;;14.40;1.00;;;;;;2263043;61;1088;-86
2021/10/18 07:31:36;405899.00;1.35;699.95;0.00;0.00;0.62;;;;;14.10;1.00;;;;;;2263269;61;1220;-86
2021/10/18 07:34:06;457899.00;1.53;789.37;0.00;0.00;0.62;;;;;14.00;1.00;;;;;;2259020;61;1282;-86
2021/10/18 07:36:34;401188.00;1.34;691.85;0.00;0.00;0.62;;;;;14.10;1.00;;;;;;2262534;61;1184;-86
2021/10/18 07:39:05;352141.00;1.17;607.54;0.00;0.00;0.62;;;;;13.80;1.00;;;;;;2262005;61;1075;-85
2021/10/18 07:41:32;517273.00;1.72;891.57;0.00;0.00;0.62;;;;;13.40;1.00;;;;;;2261868;61;1059;-85
2021/10/18 07:44:00;558583.00;1.86;962.76;11320.00;0.04;20.24;;;;;13.10;1.10;;;;;;2261636;61;1344;-86
2021/10/18 07:46:27;583391.00;1.94;1005.55;0.00;0.00;0.62;;;;;13.20;2.20;;;;;;2261752;61;2008;-86
2021/10/18 07:48:54;602807.00;2.01;1039.07;0.00;0.00;0.62;;;;;13.40;2.50;;;;;;2262815;61;1231;-86
2021/10/18 07:51:21;453348.00;1.51;781.54;0.00;0.00;0.62;;;;;14.00;1.80;;;;;;2267616;61;1001;-87
2021/10/18 07:53:48;458985.00;1.53;791.24;0.00;0.00;0.62;;;;;14.10;1.00;;;;;;2263149;61;1347;-86
2021/10/18 07:56:15;508384.00;1.69;876.26;37413.00;0.12;65.41;;;;;14.10;1.00;;;;;;2261926;61;1268;-86
2021/10/18 07:58:42;756038.00;2.52;1304.56;0.00;0.00;0.62;;;;;14.10;1.00;;;;;;2262385;61;1188;-86
2021/10/18 08:01:10;629772.00;2.10;1085.66;0.00;0.00;0.62;;;;;14.20;1.00;;;;;;2262886;61;1168;-86
2021/10/18 08:03:37;361390.00;1.20;623.44;0.00;0.00;0.62;;;;;14.10;1.00;;;;;;2263311;61;1373;-85
2021/10/18 08:06:04;547810.00;1.83;944.18;0.00;0.00;0.62;;;;;14.30;1.00;;;;;;2262007;61;2006;-85
2021/10/18 08:08:33;369175.00;1.23;636.82;0.00;0.00;0.62;;;;;14.30;1.00;;;;;;2262928;61;1042;-86
2021/10/18 08:11:00;624049.00;2.08;1075.76;0.00;0.00;0.62;;;;;14.40;1.00;;;;;;2255633;61;1134;-87
2021/10/18 08:13:27;441499.00;1.47;761.16;0.00;0.00;0.62;;;;;14.60;1.00;;;;;;2263064;61;1831;-86
2021/10/18 08:15:54;408778.00;1.36;704.90;0.00;0.00;0.62;;;;;14.30;1.00;;;;;;2258866;61;1145;-85
2021/10/18 08:18:22;377993.00;1.26;651.98;0.00;0.00;0.62;;;;;14.20;1.00;;;;;;2262870;61;1213;-87
2021/10/18 08:20:49;308130.00;1.03;531.90;0.00;0.00;0.62;;;;;14.20;1.00;;;;;;2258916;61;1063;-86
2021/10/18 08:23:16;265496.00;0.88;458.60;0.00;0.00;0.62;;;;;14.30;1.00;;;;;;2263462;61;1424;-86
2021/10/18 08:25:43;404157.00;1.35;696.95;0.00;0.00;0.62;;;;;14.60;1.00;;;;;;2256767;61;1999;-87
2021/10/18 08:28:10;370655.00;1.24;639.36;0.00;0.00;0.62;;;;;14.90;1.00;;;;;;2264725;61;1132;-86
2021/10/18 08:30:38;355063.00;1.18;612.56;0.00;0.00;0.62;;;;;15.10;1.00;;;;;;2263939;61;1117;-87
2021/10/18 08:33:06;536367.00;1.79;924.46;14211.00;0.05;25.24;;;;;15.30;1.00;;;;;;2266572;61;1325;-87
2021/10/18 08:35:34;567757.00;1.89;978.58;0.00;0.00;0.62;;;;;15.30;1.00;;;;;;2256338;61;1267;-87
2021/10/18 08:38:19;441997.00;1.47;762.02;0.00;0.00;0.62;;;;;15.50;1.00;;;;;;2263926;61;1112;-87
2021/10/18 08:40:52;420049.00;1.40;724.27;0.00;0.00;0.62;;;;;15.70;1.00;;;;;;2256756;61;1197;-87
2021/10/18 08:44:13;355207.00;1.18;612.81;0.00;0.00;0.62;;;;;15.50;1.00;;;;;;2263674;61;1426;-86
2021/10/18 08:46:18;269397.00;0.90;465.31;0.00;0.00;0.62;;;;;16.00;1.00;;;;;;2263206;61;2007;-87
2021/10/18 08:48:50;591836.00;1.97;1020.13;33494.00;0.11;58.63;;;;;16.10;1.00;;;;;;2259645;61;1224;-86
2021/10/18 08:51:18;345752.00;1.15;596.56;0.00;0.00;0.62;;;;;16.40;1.00;;;;;;2259428;61;1081;-86
2021/10/18 08:53:45;355049.00;1.18;612.54;0.00;0.00;0.62;;;;;16.40;1.00;;;;;;2259689;61;1424;-86
2021/10/18 08:56:12;260326.00;0.87;449.71;0.00;0.00;0.62;;;;;16.30;1.00;;;;;;2259235;61;1175;-86
2021/10/18 08:58:40;312155.00;1.04;538.81;0.00;0.00;0.62;;;;;16.50;1.00;;;;;;2263872;61;1711;-86
2021/10/18 09:01:07;454460.00;1.51;783.45;0.00;0.00;0.62;;;;;16.50;1.00;;;;;;2253213;61;1252;-86
2021/10/18 09:03:35;293686.00;0.98;507.07;0.00;0.00;0.62;;;;;16.40;1.00;;;;;;2263451;61;1317;-86
2021/10/18 09:06:17;281885.00;0.94;486.78;0.00;0.00;0.62;;;;;16.00;1.00;;;;;;2263413;61;1915;-87
2021/10/18 09:08:48;524273.00;1.75;903.63;102664.00;0.34;178.17;;;;;16.20;1.00;;;;;;2255723;61;1179;-85
2021/10/18 09:11:17;442984.00;1.48;763.72;78260.00;0.26;136.03;;;;;15.70;1.00;;;;;;2255699;61;1283;-86
2021/10/18 09:13:59;606722.00;2.02;1045.83;81333.00;0.27;141.34;;;;;16.10;1.00;;;;;;2259423;61;1365;-86
2021/10/18 09:16:29;940823.00;3.14;1627.93;87468.00;0.29;151.94;;;;;15.80;1.00;;;;;;2263237;61;1132;-86
2021/10/18 09:19:01;654826.00;2.18;1128.99;82490.00;0.27;143.34;;;;;16.20;1.00;;;;;;2263396;61;1082;-86
2021/10/18 09:21:30;688451.00;2.29;1187.22;0.00;0.00;0.62;;;;;16.30;1.00;;;;;;2255914;61;1232;-86
2021/10/18 09:24:00;1017031.00;3.39;1762.66;118463.00;0.39;205.43;;;;;16.40;1.00;;;;;;2255845;61;1361;-86
2021/10/18 09:26:28;604521.00;2.02;1042.03;81787.00;0.27;142.12;;;;;16.70;1.00;;;;;;2262837;61;2006;-86
2021/10/18 09:28:56;452480.00;1.51;780.05;88956.00;0.30;154.50;;;;;16.80;1.00;;;;;;2259769;61;840;-86
2021/10/18 09:31:26;484461.00;1.61;835.08;86812.00;0.29;150.80;;;;;16.80;1.00;;;;;;2259962;61;1157;-86
2021/10/18 09:33:57;516233.00;1.72;889.78;77030.00;0.26;133.91;;;;;16.90;1.00;;;;;;2252245;61;1357;-87
2021/10/18 09:36:30;690173.00;2.30;1190.20;114255.00;0.38;198.17;;;;;17.10;1.00;;;;;;2259457;61;1159;-87
2021/10/18 09:39:14;442781.00;1.48;763.37;81564.00;0.27;141.74;;;;;16.80;1.00;;;;;;2259906;61;1157;-86
2021/10/18 09:41:44;748255.00;2.49;1291.02;0.00;0.00;0.62;;;;;16.60;1.00;;;;;;2258771;61;1091;-86
2021/10/18 09:44:23;752671.00;2.51;1298.70;81297.00;0.27;141.28;;;;;16.90;1.00;;;;;;2260541;61;1419;-87
2021/10/18 09:47:33;467963.00;1.56;806.68;0.00;0.00;0.62;;;;;17.00;1.00;;;;;;2257762;61;2011;-87
2021/10/18 10:51:52;623380.00;2.08;1074.61;83004.00;0.28;144.23;;;;;16.10;1.00;;;;;;2243749;62;645;-86
2021/10/18 10:54:38;552932.00;1.84;953.01;89609.00;0.30;155.63;;;;;15.90;1.00;;;;;;2243846;61;1276;-86
2021/10/18 10:57:11;637544.00;2.13;1099.09;64314.00;0.21;111.93;;;;;15.80;1.00;;;;;;2243835;62;971;-86
2021/10/18 10:59:50;774556.00;2.58;1336.78;130280.00;0.43;225.81;;;;;15.90;1.00;;;;;;2243994;62;1161;-87
2021/10/18 11:02:27;426712.00;1.42;735.73;75545.00;0.25;131.34;;;;;16.00;1.00;;;;;;2245768;62;1252;-87
2021/10/18 11:04:55;546901.00;1.82;942.62;85465.00;0.28;148.48;;;;;16.30;1.00;;;;;;2245872;61;1392;-86